Time;durP1;ratioP1;P1;durP2;ratioP2;P2;SDS_P1;SDS_P2;PMS_P1;PMS_P2;Temp;Humidity;BMP_temperature;BMP_pressure;BME280_temperature;BME280_humidity;BME280_pressure;Samples;Min_cycle;Max_cycle;Signal;HPM_P1;HPM_P2
2021/08/11 00:02:21;;;;;;;14.80;9.95;;;15.50;99.90;;;;;;4982378;28;20027;-77
2021/08/11 00:04:46;;;;;;;13.40;8.95;;;15.50;99.90;;;;;;4971848;28;20037;-77
2021/08/11 00:07:12;;;;;;;14.55;9.60;;;15.60;99.90;;;;;;4970208;28;20431;-77
2021/08/11 00:09:38;;;;;;;17.88;9.10;;;15.50;99.90;;;;;;4971910;28;20049;-77
2021/08/11 00:12:04;;;;;;;15.27;9.63;;;15.60;99.90;;;;;;4970701;28;20034;-77
2021/08/11 00:14:30;;;;;;;13.65;9.50;;;15.50;99.90;;;;;;4971530;28;20031;-77
2021/08/11 00:16:56;;;;;;;10.88;7.97;;;15.60;99.90;;;;;;4970548;28;20444;-77
2021/08/11 00:19:21;;;;;;;9.00;6.70;;;15.60;99.90;;;;;;4984572;28;20069;-77
2021/08/11 00:21:47;;;;;;;12.25;8.18;;;15.50;99.90;;;;;;4967299;28;20485;-77
2021/08/11 00:24:13;;;;;;;11.90;7.93;;;15.50;99.90;;;;;;4965306;28;20109;-77
2021/08/11 00:26:38;;;;;;;12.35;8.70;;;15.50;99.90;;;;;;4971709;28;20045;-77
2021/08/11 00:29:04;;;;;;;14.50;9.77;;;15.50;99.90;;;;;;4970927;28;20408;-77
2021/08/11 00:31:31;;;;;;;12.45;8.25;;;15.60;99.90;;;;;;4971544;28;20484;-77
2021/08/11 00:33:56;;;;;;;10.07;7.95;;;15.60;99.90;;;;;;4970155;28;20419;-77
2021/08/11 00:36:22;;;;;;;14.38;8.23;;;15.70;99.90;;;;;;4971470;28;20038;-77
2021/08/11 00:38:48;;;;;;;13.35;9.63;;;15.70;99.90;;;;;;4971080;28;20157;-77
2021/08/11 00:41:15;;;;;;;12.65;8.90;;;15.80;99.90;;;;;;4970301;28;20061;-77
2021/08/11 00:43:41;;;;;;;11.65;8.27;;;15.80;99.90;;;;;;4971391;28;20033;-77
2021/08/11 00:46:08;;;;;;;13.35;9.15;;;15.80;99.90;;;;;;4971483;28;20476;-77
2021/08/11 00:48:36;;;;;;;13.10;9.35;;;15.80;99.90;;;;;;4970822;28;20031;-77
2021/08/11 00:51:03;;;;;;;12.18;9.45;;;15.80;99.90;;;;;;4973078;28;20023;-77
2021/08/11 00:53:30;;;;;;;13.20;9.20;;;15.80;99.90;;;;;;4969990;28;20034;-77
2021/08/11 00:55:59;;;;;;;15.73;9.90;;;15.80;99.90;;;;;;4969906;28;20023;-77
2021/08/11 00:58:25;;;;;;;15.48;9.85;;;15.80;99.90;;;;;;4971047;28;20436;-77
2021/08/11 01:00:53;;;;;;;13.35;9.00;;;15.70;99.90;;;;;;4970014;28;20031;-77
2021/08/11 01:03:21;;;;;;;10.73;8.27;;;15.50;99.90;;;;;;4969137;28;20030;-77
2021/08/11 01:05:48;;;;;;;12.80;8.48;;;15.50;99.90;;;;;;4970883;28;20477;-77
2021/08/11 01:08:14;;;;;;;14.93;9.77;;;15.40;99.90;;;;;;4970651;28;20042;-77
2021/08/11 01:10:40;;;;;;;14.07;9.20;;;15.40;99.90;;;;;;4969941;28;20026;-78
2021/08/11 01:13:09;;;;;;;12.63;8.55;;;15.50;99.90;;;;;;4971092;28;20106;-77
2021/08/11 01:15:36;;;;;;;14.63;9.27;;;15.50;99.90;;;;;;4971018;28;20043;-77
2021/08/11 01:18:02;;;;;;;11.55;8.82;;;15.50;99.90;;;;;;4970982;28;20022;-77
2021/08/11 01:20:30;;;;;;;12.80;8.32;;;15.60;99.90;;;;;;4960848;28;20054;-77
2021/08/11 01:23:07;;;;;;;15.13;9.88;;;15.60;99.90;;;;;;4951977;28;20058;-77
2021/08/11 01:25:44;;;;;;;10.38;8.38;;;15.50;99.90;;;;;;4951780;28;20023;-77
2021/08/11 01:28:28;;;;;;;12.52;8.55;;;15.40;99.90;;;;;;4951319;28;20031;-77
2021/08/11 01:31:00;;;;;;;14.05;9.10;;;15.40;99.90;;;;;;4952555;28;20031;-77
2021/08/11 01:33:31;;;;;;;9.85;8.50;;;15.40;99.90;;;;;;4970596;28;20027;-77
2021/08/11 01:36:09;;;;;;;13.33;10.10;;;15.40;99.90;;;;;;4985908;28;20027;-77
2021/08/11 01:38:38;;;;;;;11.73;9.15;;;15.40;99.90;;;;;;4968722;28;20339;-77
2021/08/11 01:41:07;;;;;;;12.65;9.18;;;15.30;99.90;;;;;;4970775;28;20015;-77
2021/08/11 01:43:39;;;;;;;13.10;9.15;;;15.30;99.90;;;;;;4969867;28;20065;-77
2021/08/11 01:46:07;;;;;;;12.35;8.20;;;15.30;99.90;;;;;;4951532;28;20031;-77
2021/08/11 01:48:37;;;;;;;12.93;9.38;;;15.30;99.90;;;;;;4966016;28;20063;-77
2021/08/11 01:51:04;;;;;;;13.88;8.77;;;15.30;99.90;;;;;;4953085;28;20023;-77
2021/08/11 01:53:31;;;;;;;12.07;9.35;;;15.30;99.90;;;;;;4970552;28;20027;-77
2021/08/11 01:55:59;;;;;;;12.23;8.38;;;15.30;99.90;;;;;;4967114;28;20030;-77
2021/08/11 01:58:26;;;;;;;14.52;9.32;;;15.30;99.90;;;;;;4970407;28;20473;-77
2021/08/11 02:00:55;;;;;;;11.52;8.82;;;15.30;99.90;;;;;;4971654;28;20530;-77
2021/08/11 02:03:22;;;;;;;11.10;8.73;;;15.30;99.90;;;;;;4983046;28;20028;-77
2021/08/11 02:05:50;;;;;;;12.35;8.57;;;15.30;99.90;;;;;;4954323;28;20037;-77
2021/08/11 02:08:17;;;;;;;11.45;8.45;;;15.30;99.90;;;;;;4982444;28;20063;-77
2021/08/11 02:10:43;;;;;;;9.80;8.45;;;15.20;99.90;;;;;;4973749;28;20536;-77
2021/08/11 02:13:09;;;;;;;15.20;9.02;;;15.20;99.90;;;;;;4972343;28;20041;-77
2021/08/11 02:15:36;;;;;;;14.95;9.40;;;15.20;99.90;;;;;;4972361;28;20027;-77
2021/08/11 02:18:03;;;;;;;10.90;9.30;;;15.10;99.90;;;;;;4973560;28;20113;-77
2021/08/11 02:20:29;;;;;;;12.63;8.05;;;15.20;99.90;;;;;;4972270;28;20435;-78
2021/08/11 02:22:54;;;;;;;9.63;7.80;;;15.20;99.90;;;;;;4972097;28;20035;-77
2021/08/11 02:25:20;;;;;;;10.02;8.77;;;15.20;99.90;;;;;;4972174;28;20034;-77
2021/08/11 02:27:56;;;;;;;8.35;6.55;;;15.10;99.90;;;;;;4973392;28;20373;-78
2021/08/11 02:30:26;;;;;;;10.48;7.45;;;15.10;99.90;;;;;;4973309;28;20053;-78
2021/08/11 02:33:18;;;;;;;11.82;7.65;;;15.10;99.90;;;;;;4971314;28;20340;-77
2021/08/11 02:35:51;;;;;;;8.38;6.97;;;15.10;99.90;;;;;;4973384;28;20080;-77
2021/08/11 02:38:26;;;;;;;11.65;8.38;;;15.10;99.90;;;;;;4974266;28;20552;-78
2021/08/11 02:41:13;;;;;;;12.90;8.32;;;15.10;99.90;;;;;;4954013;28;20055;-78
2021/08/11 02:43:44;;;;;;;12.10;9.32;;;15.00;99.90;;;;;;4952192;29;20023;-77
2021/08/11 02:46:15;;;;;;;9.70;8.25;;;15.00;99.90;;;;;;4953993;28;20028;-77
2021/08/11 02:48:41;;;;;;;11.68;8.43;;;15.00;99.90;;;;;;4953876;28;20042;-77
2021/08/11 02:51:09;;;;;;;11.18;8.35;;;15.00;99.90;;;;;;4953869;28;20023;-78
2021/08/11 02:53:37;;;;;;;14.40;8.82;;;15.00;99.90;;;;;;4952795;28;20397;-77
2021/08/11 02:56:03;;;;;;;11.68;8.45;;;14.90;99.90;;;;;;4952490;28;20020;-77
2021/08/11 02:58:31;;;;;;;9.48;8.35;;;14.90;99.90;;;;;;4952765;28;20058;-77
2021/08/11 03:00:58;;;;;;;9.50;8.50;;;14.80;99.90;;;;;;4953648;28;20503;-77
2021/08/11 03:03:24;;;;;;;10.90;8.18;;;14.80;99.90;;;;;;4953466;28;20028;-77
2021/08/11 03:05:50;;;;;;;11.38;8.63;;;14.80;99.90;;;;;;4968241;28;20415;-77
2021/08/11 03:08:17;;;;;;;12.85;8.00;;;14.80;99.90;;;;;;4952770;28;20114;-77
2021/08/11 03:10:43;;;;;;;7.68;6.50;;;14.70;99.90;;;;;;4970775;28;20164;-77
2021/08/11 03:13:14;;;;;;;10.90;7.65;;;14.70;99.90;;;;;;4987684;28;20117;-77
2021/08/11 03:15:42;;;;;;;10.13;7.25;;;14.60;99.90;;;;;;4972684;28;20026;-77
2021/08/11 03:18:08;;;;;;;7.88;5.97;;;14.60;99.90;;;;;;4987526;28;20026;-77
2021/08/11 03:20:34;;;;;;;5.45;4.95;;;14.50;99.90;;;;;;4972608;28;20520;-77
2021/08/11 03:23:00;;;;;;;8.07;5.20;;;14.40;99.90;;;;;;4985768;28;20076;-77
2021/08/11 03:25:26;;;;;;;14.45;7.53;;;14.40;99.90;;;;;;4971241;28;20459;-77
2021/08/11 03:27:51;;;;;;;15.52;7.43;;;14.40;99.90;;;;;;4972494;28;20047;-78
2021/08/11 03:30:17;;;;;;;13.25;7.90;;;14.40;99.90;;;;;;4970904;28;20031;-77
2021/08/11 03:32:42;;;;;;;13.38;8.95;;;14.10;99.90;;;;;;4971274;28;20027;-77
2021/08/11 03:35:08;;;;;;;12.82;7.95;;;14.10;99.90;;;;;;4970884;28;20023;-77
2021/08/11 03:37:34;;;;;;;11.15;7.00;;;14.10;99.90;;;;;;4970747;28;20051;-77
2021/08/11 03:40:00;;;;;;;13.15;7.25;;;14.10;99.90;;;;;;4971346;28;20042;-77
2021/08/11 03:42:26;;;;;;;9.68;7.10;;;14.10;99.90;;;;;;4971453;28;20041;-77
2021/08/11 03:44:52;;;;;;;8.73;6.82;;;14.10;99.90;;;;;;4972399;28;20031;-77
2021/08/11 03:47:17;;;;;;;8.82;6.50;;;14.10;99.90;;;;;;4970766;28;20033;-77
2021/08/11 03:49:46;;;;;;;6.57;5.93;;;14.10;99.90;;;;;;4970965;28;20023;-78
2021/08/11 03:52:11;;;;;;;5.50;4.70;;;14.10;99.90;;;;;;4981095;28;20032;-78
2021/08/11 03:54:37;;;;;;;6.13;5.50;;;14.10;99.90;;;;;;4952425;28;20030;-77
2021/08/11 03:57:03;;;;;;;7.38;5.80;;;14.10;99.90;;;;;;4951074;28;20046;-78
2021/08/11 03:59:29;;;;;;;6.22;5.65;;;14.00;99.90;;;;;;4952788;28;20382;-78
2021/08/11 04:01:55;;;;;;;8.70;6.05;;;14.00;99.90;;;;;;4951350;28;20043;-77
2021/08/11 04:04:20;;;;;;;7.35;6.40;;;14.00;99.90;;;;;;4952580;28;20105;-77
2021/08/11 04:06:46;;;;;;;7.30;6.50;;;14.00;99.90;;;;;;4951459;28;20036;-77
2021/08/11 04:09:12;;;;;;;8.88;6.72;;;14.10;99.90;;;;;;4952434;28;20477;-78
2021/08/11 04:11:37;;;;;;;10.02;7.70;;;14.10;99.90;;;;;;4951256;28;20046;-78
2021/08/11 04:14:03;;;;;;;7.28;6.57;;;14.30;99.90;;;;;;4950898;28;20067;-78
2021/08/11 04:16:29;;;;;;;7.03;5.72;;;14.40;99.90;;;;;;4967041;28;20035;-78
2021/08/11 04:18:54;;;;;;;11.25;5.10;;;14.50;99.90;;;;;;4952578;28;20059;-78
2021/08/11 04:21:20;;;;;;;7.47;6.22;;;14.60;99.90;;;;;;4952454;28;20368;-78
2021/08/11 04:23:46;;;;;;;15.73;7.55;;;14.60;99.90;;;;;;4966868;28;20026;-78
2021/08/11 04:26:12;;;;;;;12.05;7.35;;;14.80;99.90;;;;;;4971703;28;20018;-78
2021/08/11 04:28:37;;;;;;;16.63;9.25;;;14.80;99.90;;;;;;4969574;28;20450;-78
2021/08/11 04:31:03;;;;;;;18.95;10.60;;;14.90;99.90;;;;;;5054777;28;20055;-78
2021/08/11 04:33:29;;;;;;;21.00;11.45;;;15.00;99.90;;;;;;4986002;28;20031;-78
2021/08/11 04:35:54;;;;;;;27.90;13.43;;;15.10;99.90;;;;;;4971573;28;20068;-78
2021/08/11 04:38:20;;;;;;;72.13;16.85;;;15.10;99.90;;;;;;4969736;28;20404;-78
2021/08/11 04:40:46;;;;;;;36.53;15.15;;;15.10;99.90;;;;;;4970007;28;20034;-78
2021/08/11 04:43:11;;;;;;;26.80;15.00;;;15.10;99.90;;;;;;4970208;28;20039;-78
2021/08/11 04:45:38;;;;;;;25.27;14.35;;;15.20;99.90;;;;;;4960198;28;20019;-80
2021/08/11 04:48:04;;;;;;;28.30;15.23;;;15.30;99.90;;;;;;4951858;28;20473;-80
2021/08/11 04:50:29;;;;;;;31.55;14.45;;;15.30;99.90;;;;;;4966862;28;20019;-79
2021/08/11 04:52:55;;;;;;;32.40;13.43;;;15.30;99.90;;;;;;4962051;28;20472;-77
2021/08/11 04:55:21;;;;;;;28.63;13.95;;;15.40;99.90;;;;;;4971197;28;20038;-77
2021/08/11 04:57:46;;;;;;;26.02;13.75;;;15.50;99.90;;;;;;4970121;28;20023;-77
2021/08/11 05:00:12;;;;;;;19.27;11.43;;;15.50;99.90;;;;;;4976458;28;20023;-77
2021/08/11 05:02:38;;;;;;;15.50;9.85;;;15.60;99.90;;;;;;4966245;28;20031;-77
2021/08/11 05:05:06;;;;;;;13.27;9.32;;;15.70;99.90;;;;;;4969727;28;20030;-77
2021/08/11 05:07:31;;;;;;;13.77;9.45;;;15.70;99.90;;;;;;4970831;28;20035;-77
2021/08/11 05:09:57;;;;;;;12.40;9.30;;;15.80;99.90;;;;;;4970023;28;20030;-77
2021/08/11 05:12:24;;;;;;;11.90;9.05;;;16.00;99.90;;;;;;4969771;28;20030;-77
2021/08/11 05:14:53;;;;;;;14.63;9.82;;;16.00;99.90;;;;;;4969837;28;20049;-77
2021/08/11 05:17:22;;;;;;;11.48;9.68;;;16.10;99.90;;;;;;4956483;28;20031;-77
2021/08/11 05:19:52;;;;;;;16.73;10.32;;;16.10;99.90;;;;;;4950539;28;20024;-77
2021/08/11 05:22:23;;;;;;;13.25;9.40;;;16.20;99.90;;;;;;4954013;28;20022;-77
2021/08/11 05:24:49;;;;;;;12.38;9.20;;;16.30;99.90;;;;;;4971035;28;20044;-78
2021/08/11 05:27:16;;;;;;;13.82;9.65;;;16.40;99.90;;;;;;4970809;28;20038;-77
2021/08/11 05:29:45;;;;;;;12.82;11.02;;;16.50;99.90;;;;;;4970548;28;20050;-77
2021/08/11 05:32:12;;;;;;;16.05;11.23;;;16.60;99.90;;;;;;4970817;28;20019;-77
2021/08/11 05:34:38;;;;;;;17.95;10.93;;;16.80;99.90;;;;;;4972998;28;20027;-77
2021/08/11 05:37:03;;;;;;;13.05;10.45;;;16.90;99.90;;;;;;4974179;28;20034;-77
2021/08/11 05:39:29;;;;;;;16.30;12.43;;;17.00;99.90;;;;;;4972567;28;20417;-77
2021/08/11 05:41:55;;;;;;;15.48;11.43;;;17.10;99.90;;;;;;4972883;28;20377;-77
2021/08/11 05:44:20;;;;;;;12.10;10.65;;;17.20;99.90;;;;;;4988116;28;20362;-77
2021/08/11 05:46:46;;;;;;;17.90;11.38;;;17.30;99.90;;;;;;4972233;28;20084;-77
2021/08/11 05:49:12;;;;;;;11.10;9.32;;;17.40;99.90;;;;;;4972361;28;20117;-77
2021/08/11 05:51:38;;;;;;;13.02;10.32;;;17.50;99.90;;;;;;4988908;28;20180;-78
2021/08/11 05:54:05;;;;;;;12.68;9.70;;;17.70;99.90;;;;;;4954528;28;20127;-78
2021/08/11 05:56:32;;;;;;;14.38;10.48;;;17.80;99.90;;;;;;4969447;28;20027;-77
2021/08/11 05:58:57;;;;;;;14.30;10.10;;;17.90;99.90;;;;;;4954411;28;20031;-77
2021/08/11 06:01:24;;;;;;;13.68;9.95;;;18.00;99.90;;;;;;4952596;28;20023;-77
2021/08/11 06:03:59;;;;;;;9.57;8.57;;;18.10;99.90;;;;;;4954256;28;20473;-77
2021/08/11 06:06:26;;;;;;;12.98;9.30;;;18.30;99.90;;;;;;4969138;28;20397;-78
2021/08/11 06:08:52;;;;;;;10.98;8.55;;;18.40;99.90;;;;;;4953197;28;20039;-78
2021/08/11 06:11:18;;;;;;;10.50;8.43;;;18.60;99.90;;;;;;4963639;28;20487;-77
2021/08/11 06:13:43;;;;;;;11.07;8.20;;;18.70;99.90;;;;;;4973710;28;20503;-77
2021/08/11 06:16:09;;;;;;;10.75;9.65;;;18.80;99.90;;;;;;4973666;28;20046;-78
2021/08/11 06:18:35;;;;;;;9.35;8.00;;;19.00;99.90;;;;;;4973382;28;20095;-77
2021/08/11 06:21:00;;;;;;;10.32;8.15;;;19.20;99.90;;;;;;4972155;28;20027;-78
2021/08/11 06:23:26;;;;;;;10.15;9.10;;;19.30;99.90;;;;;;4976133;28;20081;-78
2021/08/11 06:25:51;;;;;;;11.80;8.60;;;19.40;99.90;;;;;;4969070;28;20032;-78
2021/08/11 06:28:18;;;;;;;11.30;8.93;;;19.50;99.90;;;;;;4968780;28;20500;-78
2021/08/11 06:30:43;;;;;;;9.57;7.75;;;19.60;99.90;;;;;;4954171;28;20370;-78
2021/08/11 06:33:09;;;;;;;9.48;7.88;;;19.70;99.90;;;;;;4968682;28;20023;-78
2021/08/11 06:35:35;;;;;;;9.60;7.32;;;19.80;99.90;;;;;;4968893;28;20035;-77
2021/08/11 06:38:01;;;;;;;9.02;7.13;;;19.90;99.90;;;;;;4954425;28;20039;-78
2021/08/11 06:40:28;;;;;;;8.57;6.72;;;20.10;99.90;;;;;;4952553;28;20032;-78
2021/08/11 06:42:53;;;;;;;8.50;6.20;;;20.20;99.90;;;;;;4968781;28;20031;-78
2021/08/11 06:45:19;;;;;;;7.97;6.05;;;20.30;99.90;;;;;;4953220;28;20527;-78
2021/08/11 06:47:45;;;;;;;9.05;7.22;;;20.50;99.90;;;;;;4968640;28;20119;-78
2021/08/11 06:50:12;;;;;;;6.25;3.97;;;20.50;99.90;;;;;;4953781;28;20500;-78
2021/08/11 06:52:38;;;;;;;3.70;3.30;;;20.50;99.90;;;;;;4973688;28;20027;-78
2021/08/11 06:55:12;;;;;;;3.58;3.28;;;20.60;99.90;;;;;;4973044;28;20094;-78
2021/08/11 06:57:40;;;;;;;3.92;3.63;;;20.70;97.00;;;;;;4972721;28;20030;-77
2021/08/11 07:00:07;;;;;;;4.43;4.03;;;20.80;97.40;;;;;;4971703;28;20058;-77
2021/08/11 07:02:33;;;;;;;4.20;3.80;;;20.80;89.30;;;;;;4972906;28;20026;-78
2021/08/11 07:04:58;;;;;;;5.18;3.47;;;21.00;94.90;;;;;;4971408;28;20036;-77
2021/08/11 07:07:24;;;;;;;9.98;3.90;;;21.10;91.50;;;;;;4971062;28;20031;-78
2021/08/11 07:09:50;;;;;;;3.67;2.60;;;21.20;85.20;;;;;;4971621;28;20069;-78
2021/08/11 07:12:15;;;;;;;2.60;2.40;;;21.20;77.20;;;;;;4972754;28;20030;-78
2021/08/11 07:14:41;;;;;;;3.17;2.22;;;21.20;80.90;;;;;;4972690;28;20579;-78
2021/08/11 07:17:07;;;;;;;5.07;2.30;;;21.10;77.20;;;;;;4971454;28;20538;-77
2021/08/11 07:19:32;;;;;;;5.60;2.70;;;21.30;76.50;;;;;;4972670;28;20062;-77
2021/08/11 07:21:58;;;;;;;5.38;2.95;;;21.40;77.40;;;;;;4955512;28;20034;-77
2021/08/11 07:24:24;;;;;;;3.58;2.60;;;21.60;80.40;;;;;;4972228;28;20110;-79
2021/08/11 07:26:49;;;;;;;4.25;2.88;;;21.60;77.40;;;;;;4971242;28;20118;-77
2021/08/11 07:29:15;;;;;;;2.85;2.10;;;21.60;74.70;;;;;;4971173;28;20041;-78
2021/08/11 07:31:41;;;;;;;4.55;2.90;;;21.60;74.30;;;;;;4972794;28;20030;-77
2021/08/11 07:34:06;;;;;;;3.53;2.35;;;21.60;71.30;;;;;;4972480;28;20030;-77
2021/08/11 07:36:32;;;;;;;2.92;2.30;;;21.80;71.20;;;;;;4971759;28;20029;-78
2021/08/11 07:38:57;;;;;;;3.63;2.47;;;21.90;73.50;;;;;;5055546;28;20045;-78
2021/08/11 07:41:23;;;;;;;2.60;2.20;;;22.10;69.30;;;;;;4972229;28;20023;-78
2021/08/11 07:43:49;;;;;;;4.47;2.50;;;22.20;67.80;;;;;;5055667;28;20026;-78
2021/08/11 07:46:14;;;;;;;2.55;2.28;;;22.30;66.20;;;;;;4972186;28;20488;-78
2021/08/11 07:48:40;;;;;;;3.03;2.38;;;22.50;67.80;;;;;;4970928;28;20091;-78
2021/08/11 07:51:06;;;;;;;3.85;3.17;;;22.40;67.30;;;;;;4971272;28;20472;-78
2021/08/11 07:53:32;;;;;;;4.35;3.00;;;22.40;65.00;;;;;;4962330;28;20046;-78
2021/08/11 07:55:58;;;;;;;3.78;2.75;;;22.40;66.50;;;;;;4972227;28;20019;-78
2021/08/11 07:58:25;;;;;;;6.20;3.00;;;22.50;67.70;;;;;;4969710;28;20522;-78
2021/08/11 08:00:51;;;;;;;2.83;2.35;;;22.60;66.50;;;;;;4972109;28;20023;-78
2021/08/11 08:03:17;;;;;;;3.85;2.72;;;22.60;65.90;;;;;;4971615;28;20031;-77
2021/08/11 08:05:43;;;;;;;8.23;3.95;;;22.70;68.60;;;;;;4970768;28;20023;-78
2021/08/11 08:08:09;;;;;;;4.22;2.70;;;22.70;67.70;;;;;;4971889;28;20118;-78
2021/08/11 08:10:36;;;;;;;4.63;3.15;;;22.70;68.70;;;;;;4971930;28;20031;-78
2021/08/11 08:13:01;;;;;;;3.30;2.92;;;22.60;65.40;;;;;;4970569;28;20076;-78
2021/08/11 08:15:28;;;;;;;2.67;2.47;;;22.70;66.60;;;;;;4971854;28;20031;-78
2021/08/11 08:17:54;;;;;;;3.63;3.00;;;22.60;61.60;;;;;;4981742;28;20473;-77
2021/08/11 08:20:20;;;;;;;3.70;3.00;;;22.80;64.20;;;;;;4951200;28;20034;-79
2021/08/11 08:22:49;;;;;;;3.90;2.33;;;22.90;64.90;;;;;;4967318;28;20119;-78
2021/08/11 08:25:25;;;;;;;4.13;2.75;;;23.00;65.10;;;;;;4951130;28;20023;-77
2021/08/11 08:27:52;;;;;;;4.88;2.90;;;23.10;62.50;;;;;;4951617;28;20050;-78
2021/08/11 08:30:19;;;;;;;4.20;3.00;;;23.20;63.70;;;;;;4951092;28;20027;-78
2021/08/11 08:32:45;;;;;;;4.63;3.53;;;23.00;59.80;;;;;;4952264;28;20058;-77
2021/08/11 08:35:11;;;;;;;3.35;2.80;;;22.90;59.20;;;;;;4952315;28;20461;-77
2021/08/11 08:37:38;;;;;;;5.20;3.25;;;22.80;59.10;;;;;;4952148;28;20031;-77
2021/08/11 08:40:09;;;;;;;5.05;3.08;;;22.70;60.10;;;;;;4952056;28;20096;-78
2021/08/11 08:42:36;;;;;;;3.10;2.80;;;22.90;63.30;;;;;;4950890;28;20046;-77
2021/08/11 08:45:02;;;;;;;6.43;3.30;;;22.60;59.70;;;;;;4967037;28;20385;-78
2021/08/11 08:47:30;;;;;;;3.13;2.78;;;22.80;61.30;;;;;;4951871;28;20027;-78
2021/08/11 08:49:56;;;;;;;5.30;3.55;;;23.10;62.90;;;;;;4970421;28;20041;-77
2021/08/11 08:52:23;;;;;;;5.50;2.97;;;23.10;59.90;;;;;;4969991;28;20023;-78
2021/08/11 08:54:49;;;;;;;3.53;3.10;;;23.30;61.90;;;;;;4971134;28;20027;-78
2021/08/11 08:57:16;;;;;;;3.63;3.13;;;23.40;61.40;;;;;;4969942;28;20076;-77
2021/08/11 08:59:45;;;;;;;3.42;3.13;;;23.50;62.00;;;;;;4969782;28;20081;-77
2021/08/11 09:02:13;;;;;;;3.70;3.33;;;23.50;62.30;;;;;;4970973;28;20034;-78
2021/08/11 09:04:42;;;;;;;4.82;2.92;;;23.50;61.70;;;;;;4970035;28;20497;-78
2021/08/11 09:07:16;;;;;;;5.45;3.03;;;23.40;61.40;;;;;;4970740;28;20023;-77
2021/08/11 09:09:42;;;;;;;4.20;3.42;;;23.30;60.80;;;;;;4987316;28;20034;-78
2021/08/11 09:12:15;;;;;;;4.45;3.80;;;23.40;62.60;;;;;;4973280;28;20045;-77
2021/08/11 09:14:47;;;;;;;4.78;3.58;;;23.30;62.50;;;;;;4989414;28;20076;-77
2021/08/11 09:17:32;;;;;;;22.73;13.23;;;23.20;63.60;;;;;;4989400;28;20027;-77
2021/08/11 09:19:59;;;;;;;3.95;3.35;;;23.40;64.40;;;;;;4944531;28;20035;-77
2021/08/11 09:22:24;;;;;;;5.65;3.67;;;23.10;65.10;;;;;;4969873;28;20047;-77
2021/08/11 09:25:05;;;;;;;5.43;3.67;;;23.10;65.80;;;;;;4969927;28;20077;-78
2021/08/11 09:27:33;;;;;;;5.15;4.35;;;23.10;65.60;;;;;;4954946;28;20031;-78
2021/08/11 09:30:11;;;;;;;9.35;6.82;;;23.20;66.50;;;;;;4969986;28;20031;-78
2021/08/11 09:32:55;;;;;;;24.73;17.27;;;23.40;65.50;;;;;;4955031;28;20122;-77
2021/08/11 09:35:24;;;;;;;20.48;12.27;;;23.60;64.80;;;;;;4969256;28;20901;-76
2021/08/11 09:37:50;;;;;;;10.23;4.72;;;23.80;65.60;;;;;;4953992;28;20073;-75
2021/08/11 09:40:27;;;;;;;5.65;3.42;;;24.00;63.30;;;;;;4954271;28;20034;-76
2021/08/11 09:42:57;;;;;;;5.03;3.53;;;23.70;60.20;;;;;;4968812;28;20385;-75
2021/08/11 09:45:23;;;;;;;5.03;3.63;;;23.90;63.50;;;;;;4965185;28;20027;-76
2021/08/11 09:47:58;;;;;;;7.82;4.72;;;23.90;63.00;;;;;;4978212;28;20026;-76
2021/08/11 09:50:45;;;;;;;9.45;5.43;;;23.60;60.80;;;;;;4996577;28;20038;-75
2021/08/11 09:53:32;;;;;;;6.32;4.65;;;23.70;63.10;;;;;;4968579;28;20041;-76
2021/08/11 09:56:08;;;;;;;8.05;6.60;;;23.60;61.80;;;;;;4969898;28;20454;-76
2021/08/11 09:58:40;;;;;;;13.10;6.95;;;23.70;61.20;;;;;;4984588;28;20054;-76
2021/08/11 10:01:09;;;;;;;6.28;3.33;;;23.80;62.70;;;;;;4971728;28;20038;-77
2021/08/11 10:03:53;;;;;;;8.23;4.03;;;23.90;62.20;;;;;;4973242;28;20037;-77
2021/08/11 10:06:27;;;;;;;4.57;3.72;;;24.00;64.10;;;;;;4973537;28;20484;-77
2021/08/11 10:08:54;;;;;;;7.00;4.30;;;23.80;63.50;;;;;;4988555;28;20168;-77
2021/08/11 10:11:42;;;;;;;7.57;4.72;;;24.20;64.20;;;;;;4973672;28;20093;-77
2021/08/11 10:14:10;;;;;;;3.33;3.00;;;24.40;61.20;;;;;;4972562;28;20050;-77
2021/08/11 10:16:36;;;;;;;5.53;3.42;;;24.50;60.90;;;;;;4971633;28;20027;-77
2021/08/11 10:19:03;;;;;;;5.15;4.00;;;24.50;61.00;;;;;;4961077;28;20031;-77
2021/08/11 10:21:32;;;;;;;3.00;2.72;;;24.40;60.50;;;;;;4953349;28;20028;-77
2021/08/11 10:24:00;;;;;;;5.85;4.05;;;24.40;58.20;;;;;;4969088;28;20089;-77
2021/08/11 10:26:30;;;;;;;7.40;4.90;;;24.50;58.30;;;;;;4954093;28;20380;-77
2021/08/11 10:28:57;;;;;;;5.10;3.10;;;24.50;57.00;;;;;;4953324;28;20061;-77
2021/08/11 10:31:24;;;;;;;19.40;9.20;;;24.70;55.90;;;;;;4968879;28;20027;-77
2021/08/11 10:33:51;;;;;;;4.82;3.05;;;25.00;58.30;;;;;;4954101;28;20035;-77
2021/08/11 10:36:17;;;;;;;9.77;5.60;;;25.10;56.20;;;;;;4953998;28;20069;-77
2021/08/11 10:38:45;;;;;;;12.30;5.75;;;25.00;56.60;;;;;;4953886;28;20074;-77
2021/08/11 10:41:12;;;;;;;14.73;7.97;;;24.90;57.60;;;;;;4953987;28;20024;-77
2021/08/11 10:43:39;;;;;;;20.02;8.60;;;25.20;59.70;;;;;;4953883;28;20028;-77
2021/08/11 10:46:12;;;;;;;5.93;3.92;;;25.10;56.50;;;;;;4953957;28;20027;-77
2021/08/11 10:48:37;;;;;;;7.40;4.10;;;25.00;55.90;;;;;;4960816;28;20047;-77
2021/08/11 10:51:03;;;;;;;15.75;6.78;;;25.10;58.40;;;;;;4971886;28;20027;-76
2021/08/11 10:53:29;;;;;;;9.27;5.13;;;25.30;58.40;;;;;;4971779;28;20035;-77
2021/08/11 10:55:57;;;;;;;8.02;3.92;;;25.20;55.70;;;;;;4987685;28;20435;-77
2021/08/11 10:58:40;;;;;;;4.35;2.70;;;25.30;55.30;;;;;;4971000;28;20023;-77
2021/08/11 11:01:30;;;;;;;4.13;3.72;;;25.10;55.10;;;;;;4970789;28;20022;-77
2021/08/11 11:03:56;;;;;;;4.75;3.33;;;25.10;55.60;;;;;;4971389;28;20392;-77
2021/08/11 11:06:22;;;;;;;3.92;3.17;;;25.30;56.40;;;;;;4972470;28;20056;-77
2021/08/11 11:08:48;;;;;;;5.68;2.92;;;25.30;55.40;;;;;;4971642;28;20133;-77
2021/08/11 11:11:29;;;;;;;6.80;3.50;;;25.30;55.90;;;;;;4972137;28;20027;-77
2021/08/11 11:13:55;;;;;;;4.72;3.45;;;25.40;53.70;;;;;;4972841;28;20480;-77
2021/08/11 11:16:21;;;;;;;3.03;2.72;;;25.50;54.80;;;;;;4972641;28;20094;-77
2021/08/11 11:19:13;;;;;;;6.28;3.63;;;25.40;54.40;;;;;;4964141;28;20169;-77
2021/08/11 11:21:38;;;;;;;3.17;2.80;;;25.40;56.60;;;;;;4952967;28;20039;-77
2021/08/11 11:24:22;;;;;;;4.38;3.20;;;25.10;56.70;;;;;;4951971;28;20267;-77
2021/08/11 11:26:47;;;;;;;5.53;3.40;;;24.90;57.90;;;;;;4953498;28;20102;-77
2021/08/11 11:29:18;;;;;;;6.03;3.50;;;24.50;60.00;;;;;;4951934;28;20165;-78
2021/08/11 11:31:55;;;;;;;6.55;3.30;;;24.20;60.70;;;;;;4951900;28;20034;-77
2021/08/11 11:34:32;;;;;;;5.03;3.90;;;23.70;62.30;;;;;;4968279;28;20058;-77
2021/08/11 11:36:58;;;;;;;5.35;3.85;;;23.60;64.90;;;;;;4968039;28;20110;-76
2021/08/11 11:39:31;;;;;;;5.95;3.28;;;23.50;65.60;;;;;;4952948;28;20035;-77
2021/08/11 11:42:08;;;;;;;4.13;3.40;;;23.70;63.90;;;;;;4954118;28;20034;-77
2021/08/11 11:45:13;;;;;;;6.13;3.70;;;23.50;62.80;;;;;;4953004;28;20035;-77
2021/08/11 11:47:39;;;;;;;3.95;3.08;;;23.30;61.80;;;;;;4964515;28;20476;-76
2021/08/11 11:50:20;;;;;;;4.32;3.58;;;23.10;64.20;;;;;;4971638;28;20492;-77
2021/08/11 11:53:16;;;;;;;3.13;2.70;;;23.20;64.50;;;;;;4972349;28;20023;-77
2021/08/11 11:55:43;;;;;;;3.35;3.03;;;23.10;63.90;;;;;;4973513;28;20035;-77
2021/08/11 11:58:14;;;;;;;3.83;2.83;;;23.10;64.90;;;;;;4971680;28;20031;-76
2021/08/11 12:00:41;;;;;;;3.58;2.90;;;23.40;62.40;;;;;;4970664;28;20026;-77
2021/08/11 12:03:07;;;;;;;10.00;4.35;;;23.60;63.30;;;;;;4971383;28;20488;-77
2021/08/11 12:05:44;;;;;;;5.80;3.60;;;23.90;64.60;;;;;;4971566;28;20065;-77
2021/08/11 12:08:10;;;;;;;3.72;3.20;;;24.10;60.80;;;;;;4986356;28;20093;-77
2021/08/11 12:10:38;;;;;;;4.35;3.20;;;24.00;60.70;;;;;;4970423;28;20056;-77
2021/08/11 12:13:05;;;;;;;3.92;3.33;;;24.30;62.10;;;;;;4969682;28;20026;-77
2021/08/11 12:15:36;;;;;;;4.63;3.13;;;24.30;59.50;;;;;;4972114;28;20476;-77
2021/08/11 12:18:19;;;;;;;4.15;2.78;;;24.00;59.60;;;;;;4970820;28;20023;-77
2021/08/11 12:20:47;;;;;;;4.80;3.03;;;24.10;60.40;;;;;;4986720;28;20037;-77
2021/08/11 12:23:19;;;;;;;5.78;2.90;;;24.00;58.90;;;;;;4971687;28;20476;-77
2021/08/11 12:25:47;;;;;;;4.80;3.13;;;23.80;58.70;;;;;;4986912;28;20066;-77
2021/08/11 12:28:14;;;;;;;4.38;3.13;;;23.80;61.20;;;;;;4971078;28;20066;-77
2021/08/11 12:30:50;;;;;;;4.20;2.80;;;23.70;60.70;;;;;;4970809;28;20035;-76
2021/08/11 12:33:18;;;;;;;3.10;2.80;;;23.50;62.60;;;;;;4971519;28;20027;-77
2021/08/11 12:35:44;;;;;;;7.13;3.70;;;23.40;62.20;;;;;;4970105;28;20423;-77
2021/08/11 12:38:10;;;;;;;5.88;3.22;;;23.30;64.40;;;;;;4971666;28;20031;-77
2021/08/11 12:40:39;;;;;;;3.53;3.22;;;23.20;65.50;;;;;;4971492;28;20031;-77
2021/08/11 12:43:06;;;;;;;4.88;2.75;;;23.50;68.10;;;;;;4970888;28;20094;-77
2021/08/11 12:45:49;;;;;;;3.80;2.85;;;23.70;62.40;;;;;;4970119;28;20050;-77
2021/08/11 12:48:21;;;;;;;4.22;3.00;;;24.00;59.70;;;;;;4966700;28;20116;-77